createdAt,value
2023-01-19T00:04:18.548Z,1.7
2023-01-19T00:14:19.067Z,1.7
2023-01-19T00:24:19.415Z,1.6
2023-01-19T00:34:19.483Z,1.7
2023-01-19T00:44:19.892Z,1.7
2023-01-19T00:54:20.652Z,1.8
2023-01-19T01:04:20.967Z,1.9
2023-01-19T01:14:21.093Z,1.9
2023-01-19T01:24:21.614Z,2
2023-01-19T01:34:21.737Z,2
2023-01-19T01:44:22.371Z,2.1
2023-01-19T01:54:22.813Z,2
2023-01-19T02:04:23.110Z,1.9
2023-01-19T02:14:23.445Z,2
2023-01-19T02:24:23.852Z,2
2023-01-19T02:34:24.415Z,2
2023-01-19T02:44:25.424Z,2
2023-01-19T02:54:26.422Z,2
2023-01-19T03:04:27.446Z,1.9
2023-01-19T03:14:27.819Z,1.9
2023-01-19T03:24:28.075Z,2
2023-01-19T03:34:28.707Z,1.9
2023-01-19T03:44:29.063Z,2
2023-01-19T03:54:29.387Z,2
2023-01-19T04:14:31.167Z,2.2
2023-01-19T04:24:31.527Z,2.1
2023-01-19T04:34:31.771Z,1.9
2023-01-19T04:44:31.963Z,1.3
2023-01-19T04:54:32.155Z,0.7
2023-01-19T05:04:32.798Z,0.6
2023-01-19T05:14:32.930Z,0.6
2023-01-19T05:24:33.768Z,0.6
2023-01-19T05:44:35.439Z,0.6
2023-01-19T05:54:35.717Z,0.4
2023-01-19T06:04:36.115Z,0.4
2023-01-19T06:14:36.397Z,0.4
2023-01-19T06:24:36.737Z,0.4
2023-01-19T06:34:36.974Z,0.5
2023-01-19T06:44:37.593Z,0.4
2023-01-19T06:54:38.331Z,0.4
2023-01-19T07:04:39.000Z,0.4
2023-01-19T07:14:39.768Z,0.4
2023-01-19T07:24:39.839Z,0.5
2023-01-19T07:34:40.053Z,0.6
2023-01-19T07:44:41.001Z,0.6
2023-01-19T07:54:41.871Z,0.7
2023-01-19T08:04:42.848Z,0.8
2023-01-19T08:14:43.002Z,0.9
2023-01-19T08:24:44.019Z,1
2023-01-19T08:34:44.095Z,1.1
2023-01-19T08:44:56.958Z,1.1
2023-01-19T08:54:45.160Z,1.2
2023-01-19T09:04:45.253Z,1.3
2023-01-19T09:14:45.588Z,1.3
2023-01-19T09:24:46.071Z,1.4
2023-01-19T09:34:46.988Z,1.5
2023-01-19T09:44:47.561Z,1.5
2023-01-19T09:54:47.916Z,1.5
2023-01-19T10:04:48.621Z,1.5
2023-01-19T10:14:48.868Z,1.6
2023-01-19T10:24:49.943Z,1.5
2023-01-19T10:44:51.121Z,1.7
2023-01-19T11:04:52.468Z,1.6
2023-01-19T11:34:53.958Z,1.9
2023-01-19T11:44:54.644Z,1.9
2023-01-19T12:04:55.053Z,2.1
2023-01-19T12:14:55.865Z,2.2
2023-01-19T12:24:55.921Z,2
2023-01-19T12:44:57.230Z,2.1
2023-01-19T12:54:57.758Z,2.1
2023-01-19T13:04:58.520Z,2.1
2023-01-19T13:14:59.205Z,2.3
2023-01-19T13:24:59.486Z,2.5
2023-01-19T13:25:21.264Z,2.5
2023-01-19T13:35:05.475Z,2.4
2023-01-19T13:45:05.943Z,2.4
2023-01-19T13:55:06.470Z,2.4
2023-01-19T14:05:06.946Z,2.4
2023-01-19T14:15:07.853Z,2.4
2023-01-19T14:25:08.182Z,2.5
2023-01-19T14:35:08.368Z,2.6
2023-01-19T14:45:09.131Z,2.6
2023-01-19T14:55:09.712Z,2.7
2023-01-19T15:05:09.991Z,2.6
2023-01-19T15:15:10.689Z,2.6
2023-01-19T15:25:10.738Z,2.6
2023-01-19T15:35:10.883Z,2.5
2023-01-19T15:45:11.493Z,2.4
2023-01-19T15:55:11.648Z,2.2
2023-01-19T16:05:13.018Z,2.1
2023-01-19T16:15:13.406Z,1.9
2023-01-19T16:25:14.253Z,2
2023-01-19T16:35:15.104Z,1.9
2023-01-19T16:45:15.861Z,1.8
2023-01-19T16:55:16.257Z,1.8
2023-01-19T17:05:16.710Z,1.7
2023-01-19T17:35:17.805Z,1.6
2023-01-19T17:45:18.797Z,1.5
2023-01-19T17:55:19.056Z,1.5
2023-01-19T18:05:19.378Z,1.5
2023-01-19T18:15:19.404Z,1.5
2023-01-19T18:25:19.556Z,1.5
2023-01-19T18:35:20.558Z,1.5
2023-01-19T18:45:21.384Z,1.6
2023-01-19T18:55:22.147Z,1.6
2023-01-19T19:05:22.968Z,1.7
2023-01-19T19:15:23.753Z,1.8
2023-01-19T19:25:24.239Z,1.9
2023-01-19T19:35:25.277Z,1.8
2023-01-19T19:45:26.281Z,1.9
2023-01-19T19:55:26.458Z,1.9
2023-01-19T20:05:27.423Z,1.9
2023-01-19T20:15:28.275Z,1.9
2023-01-19T20:25:29.325Z,1.9
2023-01-19T20:35:29.899Z,1.9
2023-01-19T20:45:30.633Z,1.9
2023-01-19T20:55:31.301Z,1.8
2023-01-19T21:05:31.938Z,1.8
2023-01-19T21:15:32.385Z,1.9
2023-01-19T21:25:32.708Z,1.9
2023-01-19T21:55:34.187Z,1.9
2023-01-19T22:05:36.489Z,1.9
2023-01-19T22:15:35.200Z,1.8
2023-01-19T22:35:36.672Z,1.8
2023-01-19T22:45:37.112Z,1.8
2023-01-19T22:55:37.377Z,1.7
2023-01-19T23:15:38.602Z,1.7
2023-01-19T23:35:39.719Z,1.6
2023-01-19T23:45:40.169Z,1.6
